Time;durP1;ratioP1;P1;durP2;ratioP2;P2;SDS_P1;SDS_P2;PMS_P1;PMS_P2;Temp;Humidity;BMP_temperature;BMP_pressure;BME280_temperature;BME280_humidity;BME280_pressure;Samples;Min_cycle;Max_cycle;Signal;HPM_P1;HPM_P2
2021/03/04 00:02:19;;;;;;;58.83;28.20;;;9.40;78.70;;;;;;8324409;28;20796;-75
2021/03/04 00:06:20;;;;;;;62.73;29.80;;;9.40;78.80;;;;;;8314573;28;21068;-75
2021/03/04 00:10:26;;;;;;;70.77;30.40;;;9.40;79.10;;;;;;8306863;28;20334;-74
2021/03/04 00:14:32;;;;;;;49.90;26.03;;;9.40;78.60;;;;;;8318502;28;20477;-74
2021/03/04 00:18:33;;;;;;;62.23;30.27;;;9.40;78.80;;;;;;8319648;28;21069;-74
2021/03/04 00:22:41;;;;;;;57.93;27.20;;;9.40;78.20;;;;;;8299743;28;20522;-74
2021/03/04 00:26:42;;;;;;;64.30;28.67;;;9.40;78.60;;;;;;8316702;28;20464;-74
2021/03/04 00:30:45;;;;;;;54.27;26.67;;;9.50;78.70;;;;;;8301054;28;20203;-74
2021/03/04 00:34:46;;;;;;;63.03;27.70;;;9.50;78.60;;;;;;8310913;28;20555;-74
2021/03/04 00:38:46;;;;;;;59.97;30.50;;;9.50;78.60;;;;;;8319008;28;21270;-74
2021/03/04 00:42:47;;;;;;;59.07;28.40;;;9.50;78.40;;;;;;8318384;28;20198;-74
2021/03/04 00:46:54;;;;;;;59.43;26.63;;;9.50;78.50;;;;;;8321235;28;20191;-74
2021/03/04 00:50:55;;;;;;;61.40;28.63;;;9.50;77.90;;;;;;8312715;28;20443;-74
2021/03/04 00:54:56;;;;;;;60.57;29.47;;;9.40;78.70;;;;;;8319664;28;20501;-75
2021/03/04 00:58:56;;;;;;;66.33;28.97;;;9.40;78.70;;;;;;8324821;28;20466;-74
2021/03/04 01:03:01;;;;;;;59.73;27.77;;;9.40;78.50;;;;;;8312320;28;20190;-74
2021/03/04 01:07:02;;;;;;;75.17;29.93;;;9.40;78.80;;;;;;8320671;28;20453;-74
2021/03/04 01:11:02;;;;;;;57.27;28.10;;;9.40;78.90;;;;;;8318290;28;20496;-74
2021/03/04 01:15:15;;;;;;;52.57;26.00;;;9.40;78.70;;;;;;8325225;28;21009;-74
2021/03/04 01:19:16;;;;;;;61.60;29.13;;;9.40;78.70;;;;;;8321318;28;20527;-75
2021/03/04 01:23:28;;;;;;;61.90;28.20;;;9.40;78.20;;;;;;8320910;28;20467;-75
2021/03/04 01:27:32;;;;;;;61.80;28.33;;;9.40;78.50;;;;;;8321401;28;20459;-74
2021/03/04 01:31:42;;;;;;;60.10;30.77;;;9.40;78.60;;;;;;8323271;28;21211;-77
2021/03/04 01:35:43;;;;;;;58.53;27.83;;;9.40;79.10;;;;;;8318071;28;20445;-77
2021/03/04 01:39:47;;;;;;;61.37;26.57;;;9.50;79.10;;;;;;8313997;28;20439;-77
2021/03/04 01:43:48;;;;;;;73.63;28.57;;;9.50;78.80;;;;;;8325722;28;20446;-77
2021/03/04 01:47:52;;;;;;;64.73;28.53;;;9.50;78.90;;;;;;8324732;28;20199;-77
2021/03/04 01:51:57;;;;;;;72.43;27.87;;;9.40;78.90;;;;;;8322555;28;20214;-77
2021/03/04 01:55:59;;;;;;;53.83;23.83;;;9.40;79.20;;;;;;8322961;28;20984;-77
2021/03/04 02:00:06;;;;;;;60.20;28.37;;;9.40;79.10;;;;;;8325417;28;21000;-77
2021/03/04 02:04:14;;;;;;;54.50;23.87;;;9.40;79.30;;;;;;8326442;28;20896;-78
2021/03/04 02:08:39;;;;;;;73.97;26.97;;;9.40;79.30;;;;;;8310248;28;20884;-77
2021/03/04 02:12:52;;;;;;;59.07;28.13;;;9.50;79.30;;;;;;8327454;28;20210;-77
2021/03/04 02:17:00;;;;;;;52.30;27.30;;;9.50;79.30;;;;;;8331623;28;20445;-77
2021/03/04 02:21:40;;;;;;;69.07;29.60;;;9.50;79.20;;;;;;8319667;28;20529;-78
2021/03/04 02:26:07;;;;;;;54.23;26.20;;;9.60;79.30;;;;;;8301127;28;20449;-77
2021/03/04 02:30:13;;;;;;;61.30;25.90;;;9.60;79.50;;;;;;8325733;28;20897;-77
2021/03/04 02:34:16;;;;;;;53.60;26.73;;;9.60;79.60;;;;;;8329494;28;20466;-77
2021/03/04 02:38:20;;;;;;;62.90;26.63;;;9.70;79.40;;;;;;8325487;28;20457;-77
2021/03/04 02:42:23;;;;;;;56.00;27.23;;;9.80;79.20;;;;;;8321822;28;20454;-78
2021/03/04 02:46:24;;;;;;;62.90;30.20;;;9.90;78.90;;;;;;8324992;28;20527;-77
2021/03/04 02:50:28;;;;;;;62.20;30.37;;;10.00;78.80;;;;;;8321844;28;20451;-78
2021/03/04 02:54:29;;;;;;;50.63;26.27;;;10.10;78.60;;;;;;8325535;28;20477;-78
2021/03/04 02:58:36;;;;;;;56.03;27.80;;;10.20;78.60;;;;;;8320478;28;21095;-78
2021/03/04 03:02:38;;;;;;;62.17;27.70;;;10.20;78.60;;;;;;8318845;28;20553;-78
2021/03/04 03:06:42;;;;;;;54.13;30.20;;;10.30;78.70;;;;;;8325841;28;20445;-77
2021/03/04 03:10:49;;;;;;;57.47;27.40;;;10.30;78.90;;;;;;8316405;28;20463;-77
2021/03/04 03:14:50;;;;;;;60.33;28.70;;;10.30;79.00;;;;;;8324858;28;20472;-77
2021/03/04 03:18:51;;;;;;;52.93;27.83;;;10.30;79.20;;;;;;8319590;28;20455;-77
2021/03/04 03:22:52;;;;;;;58.60;27.30;;;10.30;79.50;;;;;;8288706;28;20476;-77
2021/03/04 03:26:54;;;;;;;59.20;26.17;;;10.30;79.50;;;;;;8323896;28;20213;-77
2021/03/04 03:30:57;;;;;;;61.73;27.07;;;10.20;79.60;;;;;;8318965;28;20473;-77
2021/03/04 03:35:01;;;;;;;49.20;24.80;;;10.30;79.60;;;;;;8314195;28;20942;-77
2021/03/04 03:39:09;;;;;;;63.17;30.00;;;10.30;79.50;;;;;;8317430;28;20480;-77
2021/03/04 03:43:15;;;;;;;64.70;28.40;;;10.20;79.70;;;;;;8312984;28;21138;-77
2021/03/04 03:47:21;;;;;;;58.43;27.27;;;10.20;80.10;;;;;;8317201;28;20450;-77
2021/03/04 03:51:22;;;;;;;55.17;26.10;;;10.10;80.30;;;;;;8319291;28;20450;-77
2021/03/04 03:55:23;;;;;;;66.67;30.40;;;10.10;80.20;;;;;;8311260;28;20458;-77
2021/03/04 03:59:24;;;;;;;59.20;30.17;;;10.00;80.50;;;;;;8316119;28;21222;-77
2021/03/04 04:03:26;;;;;;;77.20;33.27;;;10.00;80.80;;;;;;8319904;28;20460;-77
2021/03/04 04:07:31;;;;;;;76.70;30.57;;;9.90;80.90;;;;;;8313227;28;20450;-77
2021/03/04 04:11:36;;;;;;;75.63;34.80;;;9.90;80.60;;;;;;8317786;28;20457;-77
2021/03/04 04:15:41;;;;;;;74.23;35.40;;;9.70;80.40;;;;;;8323392;28;20449;-77
2021/03/04 04:19:43;;;;;;;72.57;34.13;;;9.60;81.10;;;;;;8319157;28;21125;-77
2021/03/04 04:23:44;;;;;;;77.90;34.37;;;9.50;81.80;;;;;;8318184;28;20469;-77
2021/03/04 04:27:49;;;;;;;81.63;37.40;;;9.40;82.20;;;;;;8315040;28;20895;-77
2021/03/04 04:31:54;;;;;;;83.10;37.80;;;9.40;82.40;;;;;;8322710;28;20522;-77
2021/03/04 04:35:54;;;;;;;81.67;38.77;;;9.40;83.10;;;;;;8318068;28;20447;-77
2021/03/04 04:40:04;;;;;;;89.37;39.30;;;9.40;83.00;;;;;;8317361;28;20191;-77
2021/03/04 04:44:05;;;;;;;77.30;35.30;;;9.30;83.20;;;;;;8315487;28;20464;-77
2021/03/04 04:48:07;;;;;;;79.70;38.90;;;9.30;83.50;;;;;;8323173;28;20447;-77
2021/03/04 04:52:07;;;;;;;103.43;42.40;;;9.30;83.40;;;;;;8308085;28;20814;-77
2021/03/04 04:56:08;;;;;;;91.90;44.27;;;9.30;83.70;;;;;;8317198;28;21166;-77
2021/03/04 05:00:12;;;;;;;105.57;45.80;;;9.30;83.90;;;;;;8319708;28;20197;-77
2021/03/04 05:04:12;;;;;;;115.83;48.77;;;9.30;84.00;;;;;;8325128;28;20262;-77
2021/03/04 05:08:13;;;;;;;102.77;46.03;;;9.30;84.00;;;;;;8324593;28;20479;-77
2021/03/04 05:12:13;;;;;;;98.43;47.33;;;9.40;84.20;;;;;;8309848;28;20320;-77
2021/03/04 05:16:14;;;;;;;95.63;47.23;;;9.40;84.20;;;;;;8313090;28;20329;-77
2021/03/04 05:20:15;;;;;;;101.90;47.97;;;9.50;84.20;;;;;;8319622;28;20190;-77
2021/03/04 05:24:19;;;;;;;107.40;45.20;;;9.60;84.10;;;;;;8313588;28;22146;-74
2021/03/04 05:28:27;;;;;;;108.40;45.90;;;9.70;83.40;;;;;;8316368;28;20449;-74
2021/03/04 05:32:32;;;;;;;95.27;43.67;;;9.70;82.60;;;;;;8301789;28;21182;-77
2021/03/04 05:36:37;;;;;;;97.20;42.03;;;9.70;82.40;;;;;;8312927;28;20466;-77
2021/03/04 05:40:42;;;;;;;96.20;39.23;;;9.80;81.90;;;;;;8325380;28;20465;-77
2021/03/04 05:44:49;;;;;;;86.47;38.30;;;9.80;81.40;;;;;;8330888;28;20957;-77
2021/03/04 05:48:51;;;;;;;77.40;38.23;;;9.90;81.00;;;;;;8313560;28;20486;-77
2021/03/04 05:53:04;;;;;;;83.20;44.10;;;9.90;80.80;;;;;;8322389;28;20508;-77
2021/03/04 05:57:06;;;;;;;85.87;42.67;;;9.90;80.70;;;;;;8319231;28;20536;-77
2021/03/04 06:01:12;;;;;;;72.33;40.20;;;9.90;80.40;;;;;;8321492;28;20488;-77
2021/03/04 06:05:13;;;;;;;73.67;36.57;;;9.90;80.30;;;;;;8325745;28;20458;-77
2021/03/04 06:09:14;;;;;;;82.00;35.57;;;9.90;80.50;;;;;;8309310;28;20487;-77
2021/03/04 06:13:19;;;;;;;92.23;46.57;;;10.00;80.40;;;;;;8299573;28;20485;-75
2021/03/04 06:17:25;;;;;;;89.00;40.17;;;10.10;80.70;;;;;;8318880;28;20463;-78
2021/03/04 06:21:30;;;;;;;84.33;41.70;;;10.30;82.30;;;;;;8318226;28;20545;-76
2021/03/04 06:25:35;;;;;;;94.63;39.70;;;10.40;85.30;;;;;;8316296;28;20468;-74
2021/03/04 06:29:37;;;;;;;70.10;37.97;;;10.40;86.30;;;;;;8326687;28;20508;-77
2021/03/04 06:33:39;;;;;;;92.73;39.57;;;10.40;87.20;;;;;;8301684;28;20485;-76
2021/03/04 06:37:45;;;;;;;100.63;40.63;;;10.30;87.90;;;;;;8316924;28;21333;-75
2021/03/04 06:41:55;;;;;;;96.17;40.77;;;10.30;88.50;;;;;;8319149;28;20466;-74
2021/03/04 06:46:07;;;;;;;92.07;42.57;;;10.30;88.90;;;;;;8315567;28;20794;-74
2021/03/04 06:50:08;;;;;;;108.20;45.23;;;10.30;89.50;;;;;;8315146;28;20482;-73
2021/03/04 06:54:24;;;;;;;86.87;42.17;;;10.30;89.00;;;;;;8316145;28;20477;-73
2021/03/04 06:58:35;;;;;;;105.03;43.47;;;10.30;89.30;;;;;;8272310;28;20472;-72
2021/03/04 07:02:37;;;;;;;90.37;41.60;;;10.30;89.50;;;;;;8217809;28;20453;-72
2021/03/04 07:06:39;;;;;;;90.87;45.30;;;10.40;89.80;;;;;;8185203;28;20556;-72
2021/03/04 07:10:40;;;;;;;111.97;47.80;;;10.40;89.90;;;;;;8215843;28;20225;-70
2021/03/04 07:14:44;;;;;;;116.97;47.97;;;10.50;89.90;;;;;;8209055;28;20519;-70
2021/03/04 07:18:54;;;;;;;108.10;45.23;;;10.70;90.00;;;;;;8209735;28;20537;-71
2021/03/04 07:22:55;;;;;;;85.90;41.17;;;10.80;90.00;;;;;;8224180;28;20486;-71
2021/03/04 07:26:56;;;;;;;85.47;43.53;;;11.00;90.10;;;;;;8199665;28;20457;-71
2021/03/04 07:30:58;;;;;;;76.90;36.40;;;11.30;89.90;;;;;;8218059;28;20207;-71
2021/03/04 07:35:13;;;;;;;79.33;36.10;;;11.60;89.70;;;;;;8215934;28;20484;-71
2021/03/04 07:39:38;;;;;;;71.03;35.37;;;11.80;89.40;;;;;;8209725;28;20445;-73
2021/03/04 07:43:43;;;;;;;61.77;32.73;;;11.90;87.70;;;;;;8208388;28;20488;-74
2021/03/04 07:47:48;;;;;;;60.67;30.70;;;11.90;87.30;;;;;;8212368;28;20449;-75
2021/03/04 07:51:58;;;;;;;57.80;28.23;;;11.90;86.90;;;;;;8219630;28;20480;-73
2021/03/04 07:56:03;;;;;;;54.80;25.00;;;12.20;87.10;;;;;;8214331;28;20449;-73
2021/03/04 08:00:05;;;;;;;48.60;21.33;;;12.70;85.20;;;;;;8197256;28;20458;-74
2021/03/04 08:04:26;;;;;;;42.37;19.87;;;13.00;83.20;;;;;;8210339;28;20454;-74
2021/03/04 08:08:37;;;;;;;34.53;19.33;;;13.10;81.30;;;;;;8211781;28;20484;-74
2021/03/04 08:12:51;;;;;;;39.60;20.00;;;12.80;80.70;;;;;;8213189;28;20472;-73
2021/03/04 08:16:57;;;;;;;37.90;19.40;;;12.50;82.10;;;;;;8232517;28;20445;-74
2021/03/04 08:21:06;;;;;;;39.20;21.60;;;12.30;82.80;;;;;;8204792;28;20505;-73
2021/03/04 08:25:10;;;;;;;37.90;19.67;;;12.20;83.00;;;;;;8227941;28;20462;-74
2021/03/04 08:29:11;;;;;;;35.97;24.00;;;12.10;83.60;;;;;;8230028;28;20462;-72
2021/03/04 08:33:14;;;;;;;55.97;26.73;;;12.10;83.90;;;;;;8227744;28;20563;-72
2021/03/04 08:37:24;;;;;;;41.90;24.00;;;12.10;84.40;;;;;;8226728;28;20463;-75
2021/03/04 08:41:25;;;;;;;38.47;22.33;;;12.00;84.50;;;;;;8230958;28;20207;-74
2021/03/04 08:45:35;;;;;;;45.50;22.17;;;12.10;84.60;;;;;;8210215;28;20557;-73
2021/03/04 08:49:37;;;;;;;45.37;22.87;;;12.10;84.60;;;;;;8244448;28;20690;-72
2021/03/04 08:53:46;;;;;;;43.83;22.90;;;12.10;84.70;;;;;;8220161;28;20546;-73
2021/03/04 08:57:48;;;;;;;42.80;23.50;;;12.10;84.70;;;;;;8223902;28;21163;-73
2021/03/04 09:01:54;;;;;;;42.70;24.43;;;12.20;84.90;;;;;;8214057;28;20453;-73
2021/03/04 09:06:15;;;;;;;44.13;24.00;;;12.30;84.70;;;;;;8221960;28;20454;-73
2021/03/04 09:10:22;;;;;;;37.73;23.50;;;12.40;84.70;;;;;;8223159;28;20469;-73
2021/03/04 09:14:31;;;;;;;34.27;23.30;;;12.60;84.70;;;;;;8232770;28;20486;-73
2021/03/04 09:18:44;;;;;;;39.43;23.27;;;12.80;84.00;;;;;;8219465;28;21010;-73
2021/03/04 09:22:47;;;;;;;44.40;25.33;;;13.00;83.10;;;;;;8235206;28;20951;-74
2021/03/04 09:26:52;;;;;;;43.07;25.30;;;13.00;82.10;;;;;;8217004;28;20487;-74
2021/03/04 09:31:07;;;;;;;40.30;25.50;;;13.10;82.50;;;;;;8217211;28;20462;-73
2021/03/04 09:35:12;;;;;;;37.80;24.40;;;13.10;82.30;;;;;;8237500;28;20493;-73
2021/03/04 09:39:17;;;;;;;50.33;26.63;;;13.20;82.00;;;;;;8222905;28;20900;-73
2021/03/04 09:43:24;;;;;;;37.30;20.90;;;13.20;81.70;;;;;;8217614;28;20586;-73
2021/03/04 09:47:28;;;;;;;33.07;19.43;;;13.90;81.20;;;;;;8221247;28;20689;-74
2021/03/04 09:51:37;;;;;;;23.80;19.10;;;15.50;76.60;;;;;;8219808;28;20460;-73
2021/03/04 09:55:50;;;;;;;27.53;18.77;;;16.70;70.50;;;;;;8209111;28;20930;-73
2021/03/04 09:59:53;;;;;;;26.47;16.50;;;17.80;68.40;;;;;;8195298;28;20458;-74
2021/03/04 10:04:07;;;;;;;30.57;17.47;;;18.40;66.50;;;;;;8214061;28;20504;-73
2021/03/04 10:08:09;;;;;;;20.30;12.07;;;18.70;64.90;;;;;;8218494;28;20493;-72
2021/03/04 10:12:10;;;;;;;18.77;13.83;;;18.60;63.90;;;;;;8211855;28;20473;-73
2021/03/04 10:16:17;;;;;;;18.93;13.77;;;18.90;63.40;;;;;;8217211;28;20483;-74
2021/03/04 10:20:20;;;;;;;18.90;12.90;;;19.20;62.20;;;;;;8211896;28;20988;-73
2021/03/04 10:24:21;;;;;;;20.83;11.90;;;19.20;61.10;;;;;;8211669;28;20464;-73
2021/03/04 10:28:21;;;;;;;15.97;11.37;;;18.80;61.70;;;;;;8217212;28;20461;-72
2021/03/04 10:32:26;;;;;;;20.43;11.50;;;18.40;61.20;;;;;;8222641;28;20286;-74
2021/03/04 10:36:27;;;;;;;16.90;13.57;;;17.90;61.40;;;;;;8215584;28;20269;-73
2021/03/04 10:40:32;;;;;;;21.40;14.63;;;17.60;63.00;;;;;;8223581;28;21277;-71
2021/03/04 10:44:35;;;;;;;26.70;18.50;;;17.40;63.30;;;;;;8221584;28;20484;-74
2021/03/04 10:48:38;;;;;;;28.57;20.30;;;17.20;64.50;;;;;;8203437;28;20471;-74
2021/03/04 10:52:41;;;;;;;25.20;20.17;;;16.80;65.40;;;;;;8213418;28;20476;-74
2021/03/04 10:56:45;;;;;;;25.10;19.60;;;16.50;66.30;;;;;;8204822;28;20526;-75
2021/03/04 11:00:46;;;;;;;31.00;20.23;;;16.40;67.00;;;;;;8218892;28;20477;-74
2021/03/04 11:04:50;;;;;;;25.97;18.83;;;16.50;67.70;;;;;;8216302;28;20459;-74
2021/03/04 11:09:07;;;;;;;27.00;18.20;;;16.60;66.60;;;;;;8219262;28;20510;-76
2021/03/04 11:13:09;;;;;;;28.87;19.00;;;16.60;65.40;;;;;;8211788;28;20463;-74
2021/03/04 11:17:15;;;;;;;27.33;19.03;;;16.30;65.80;;;;;;8215806;28;20442;-75
2021/03/04 11:21:27;;;;;;;29.33;20.00;;;16.10;66.50;;;;;;8214941;28;20944;-73
2021/03/04 11:25:40;;;;;;;33.30;22.43;;;15.80;67.40;;;;;;8214563;28;20974;-74
2021/03/04 11:29:46;;;;;;;31.30;20.47;;;15.70;67.90;;;;;;8219009;28;20484;-73
2021/03/04 11:33:47;;;;;;;33.60;21.57;;;15.60;68.30;;;;;;8224433;28;20461;-74
2021/03/04 11:37:48;;;;;;;28.90;20.27;;;15.70;69.60;;;;;;8208737;28;20447;-74
2021/03/04 11:41:49;;;;;;;29.80;18.80;;;15.80;69.70;;;;;;8207432;28;20512;-72
2021/03/04 11:45:54;;;;;;;23.00;16.37;;;15.70;69.30;;;;;;8205082;28;20186;-73
2021/03/04 11:49:57;;;;;;;26.73;15.40;;;15.40;71.10;;;;;;8217381;28;20452;-72
2021/03/04 11:53:59;;;;;;;19.93;13.40;;;15.20;71.70;;;;;;8211618;28;20222;-73
2021/03/04 11:58:04;;;;;;;21.07;13.50;;;15.40;71.10;;;;;;8213656;28;20981;-74
2021/03/04 12:02:08;;;;;;;25.50;16.83;;;15.50;69.30;;;;;;8217375;28;20956;-73
2021/03/04 12:06:20;;;;;;;23.47;15.67;;;15.60;68.60;;;;;;8220862;28;20454;-72
2021/03/04 12:10:25;;;;;;;29.93;18.83;;;15.40;68.20;;;;;;8198330;28;20474;-73
2021/03/04 12:14:33;;;;;;;31.23;18.97;;;15.30;70.10;;;;;;8217645;28;20560;-73
2021/03/04 12:18:36;;;;;;;26.60;18.10;;;15.20;69.30;;;;;;8212459;28;20468;-72
2021/03/04 12:22:44;;;;;;;35.17;20.93;;;15.10;69.60;;;;;;8216751;28;20263;-73
2021/03/04 12:26:55;;;;;;;30.77;21.13;;;14.90;69.50;;;;;;8207594;28;20455;-72
2021/03/04 12:30:57;;;;;;;31.93;22.70;;;14.70;70.40;;;;;;8216300;28;20451;-74
2021/03/04 12:35:04;;;;;;;30.17;20.13;;;14.60;71.30;;;;;;8215174;28;20473;-73
2021/03/04 12:39:11;;;;;;;34.63;20.07;;;14.40;70.90;;;;;;8211925;28;20436;-74
2021/03/04 12:43:20;;;;;;;30.40;19.07;;;14.20;70.70;;;;;;8209976;28;20454;-74
2021/03/04 12:47:40;;;;;;;27.20;18.90;;;14.00;71.60;;;;;;8212318;28;20453;-73
2021/03/04 12:51:48;;;;;;;39.47;23.17;;;13.90;70.70;;;;;;8228521;28;21081;-73
2021/03/04 12:55:54;;;;;;;42.23;23.27;;;13.80;71.30;;;;;;8212326;28;20470;-74
2021/03/04 12:59:57;;;;;;;32.70;21.10;;;13.80;71.90;;;;;;8217227;28;20451;-73
2021/03/04 13:03:58;;;;;;;42.57;24.00;;;13.70;71.30;;;;;;8220914;28;20931;-72
2021/03/04 13:07:58;;;;;;;39.40;22.70;;;13.60;71.30;;;;;;8212431;28;21002;-74
2021/03/04 13:12:03;;;;;;;55.93;29.93;;;13.50;72.40;;;;;;8204897;28;20203;-73
2021/03/04 13:16:07;;;;;;;41.67;24.97;;;13.50;72.80;;;;;;8215078;28;20188;-72
2021/03/04 13:20:09;;;;;;;36.40;21.80;;;13.40;73.30;;;;;;8220523;28;20447;-74
2021/03/04 13:24:10;;;;;;;44.53;23.90;;;13.30;73.20;;;;;;8192266;28;20474;-73
2021/03/04 13:28:14;;;;;;;46.30;26.87;;;13.20;73.10;;;;;;8224564;28;20451;-73
2021/03/04 13:32:18;;;;;;;39.17;24.23;;;13.10;74.00;;;;;;8222297;28;20473;-73
2021/03/04 13:36:21;;;;;;;53.27;24.27;;;13.00;74.20;;;;;;8224200;28;20193;-73
2021/03/04 13:40:23;;;;;;;47.17;25.33;;;12.90;74.40;;;;;;8237068;28;20454;-73
2021/03/04 13:44:24;;;;;;;51.13;24.97;;;12.80;74.80;;;;;;8219327;28;20450;-74
2021/03/04 13:48:32;;;;;;;49.50;25.53;;;12.70;75.40;;;;;;8200133;28;21239;-74
2021/03/04 13:52:38;;;;;;;50.40;26.80;;;12.70;76.00;;;;;;8211811;28;20476;-73
2021/03/04 13:56:44;;;;;;;107.93;47.70;;;12.60;76.60;;;;;;8237883;28;20479;-73
2021/03/04 14:00:48;;;;;;;128.63;57.83;;;12.50;79.00;;;;;;8220752;28;20441;-74
2021/03/04 14:04:58;;;;;;;93.00;42.57;;;12.30;81.20;;;;;;8217397;28;20497;-73
2021/03/04 14:09:01;;;;;;;69.43;33.20;;;12.00;82.90;;;;;;8203822;28;20496;-73
2021/03/04 14:13:05;;;;;;;50.40;29.23;;;11.60;83.60;;;;;;8203675;28;20504;-74
2021/03/04 14:17:05;;;;;;;66.87;33.67;;;11.30;84.10;;;;;;8215860;28;20460;-74
2021/03/04 14:21:13;;;;;;;55.50;28.60;;;11.10;84.80;;;;;;8209770;28;20457;-74
2021/03/04 14:25:17;;;;;;;64.33;30.50;;;10.90;85.40;;;;;;8221005;28;20941;-74
2021/03/04 14:29:21;;;;;;;58.30;30.10;;;10.80;86.20;;;;;;8216712;28;20479;-75
2021/03/04 14:33:28;;;;;;;39.03;24.57;;;10.70;86.70;;;;;;8218480;28;20461;-75
2021/03/04 14:37:30;;;;;;;18.27;14.77;;;10.60;87.10;;;;;;8222549;28;20516;-74
2021/03/04 14:41:32;;;;;;;23.40;14.00;;;10.50;87.30;;;;;;8216853;28;20459;-74
2021/03/04 14:45:33;;;;;;;15.67;10.47;;;10.40;87.50;;;;;;8216670;28;20460;-75
2021/03/04 14:49:36;;;;;;;9.93;8.30;;;10.30;87.10;;;;;;8206052;28;20455;-73
2021/03/04 14:53:41;;;;;;;11.80;9.13;;;10.20;86.50;;;;;;8217480;28;20472;-75
2021/03/04 14:57:43;;;;;;;15.20;9.27;;;9.90;86.40;;;;;;8223314;28;20456;-74
2021/03/04 15:01:46;;;;;;;10.17;7.93;;;9.80;87.00;;;;;;8227291;28;20670;-74
2021/03/04 15:05:49;;;;;;;14.00;10.50;;;9.70;86.80;;;;;;8218899;28;20456;-75
2021/03/04 15:09:50;;;;;;;12.03;8.63;;;9.60;87.10;;;;;;8224542;28;20510;-75
2021/03/04 15:13:53;;;;;;;10.73;7.50;;;9.50;87.00;;;;;;8231421;28;20503;-74
2021/03/04 15:17:53;;;;;;;7.70;6.73;;;9.40;87.00;;;;;;8203320;28;20197;-76
2021/03/04 15:21:54;;;;;;;6.27;5.67;;;9.30;87.10;;;;;;8207788;28;20807;-75
2021/03/04 15:25:57;;;;;;;5.10;4.50;;;9.20;87.10;;;;;;8206651;28;20215;-75
2021/03/04 15:29:58;;;;;;;4.73;4.30;;;9.10;86.90;;;;;;8213250;28;20192;-75
2021/03/04 15:33:58;;;;;;;5.10;3.57;;;9.00;87.00;;;;;;8229570;28;20471;-74
2021/03/04 15:38:03;;;;;;;5.80;4.00;;;8.80;87.00;;;;;;8231174;28;20271;-75
2021/03/04 15:42:08;;;;;;;6.00;4.57;;;8.70;86.30;;;;;;8213768;28;20524;-73
2021/03/04 15:46:13;;;;;;;8.17;5.57;;;8.50;86.40;;;;;;8221934;28;20538;-74
2021/03/04 15:50:32;;;;;;;7.03;6.20;;;8.50;86.50;;;;;;8219560;28;20505;-76
2021/03/04 15:54:36;;;;;;;13.90;6.30;;;8.40;86.80;;;;;;8218338;28;20473;-76
2021/03/04 15:58:40;;;;;;;5.90;5.20;;;8.40;86.40;;;;;;8204218;28;20465;-73
2021/03/04 16:02:42;;;;;;;7.77;4.70;;;8.30;86.70;;;;;;8223436;28;20493;-75
2021/03/04 16:06:44;;;;;;;6.40;4.27;;;8.20;86.50;;;;;;8228849;28;20971;-75
2021/03/04 16:10:48;;;;;;;9.80;4.30;;;8.10;85.40;;;;;;8228242;28;20482;-75
2021/03/04 16:14:52;;;;;;;15.97;6.13;;;8.00;85.50;;;;;;8225341;28;20481;-73
2021/03/04 16:18:54;;;;;;;15.80;8.93;;;7.90;86.00;;;;;;8219851;28;22375;-75
2021/03/04 16:22:56;;;;;;;10.70;6.50;;;7.80;86.10;;;;;;8226177;28;20548;-75
2021/03/04 16:26:57;;;;;;;11.13;7.53;;;7.80;86.30;;;;;;8221781;28;20489;-75
2021/03/04 16:30:59;;;;;;;13.17;6.33;;;7.70;86.80;;;;;;8228214;28;20501;-76
2021/03/04 16:35:14;;;;;;;9.07;5.87;;;7.70;87.00;;;;;;8235094;28;20472;-75
2021/03/04 16:39:18;;;;;;;5.87;5.00;;;7.70;87.10;;;;;;8243876;28;20449;-76
2021/03/04 16:43:20;;;;;;;4.27;2.87;;;7.60;86.90;;;;;;8236410;28;20449;-75
2021/03/04 16:47:29;;;;;;;5.30;2.97;;;7.50;85.90;;;;;;8222464;28;20515;-75
2021/03/04 16:51:32;;;;;;;5.13;3.57;;;7.30;84.70;;;;;;8223500;28;20456;-75
2021/03/04 16:55:38;;;;;;;4.53;3.10;;;7.10;85.00;;;;;;8220802;28;20469;-76
2021/03/04 16:59:48;;;;;;;7.97;4.70;;;6.90;85.60;;;;;;8233090;28;20457;-76
2021/03/04 17:03:53;;;;;;;6.30;4.13;;;6.80;86.40;;;;;;8232008;28;20947;-75
2021/03/04 17:08:00;;;;;;;7.20;3.80;;;6.70;86.30;;;;;;8211206;28;20500;-75
2021/03/04 17:12:08;;;;;;;8.37;4.30;;;6.60;86.20;;;;;;8224861;28;20507;-75
2021/03/04 17:16:12;;;;;;;12.30;6.00;;;6.60;86.70;;;;;;8221767;28;20626;-75
2021/03/04 17:20:14;;;;;;;13.50;5.83;;;6.60;87.20;;;;;;8217303;28;20457;-75
2021/03/04 17:24:18;;;;;;;9.43;6.60;;;6.60;87.40;;;;;;8207482;28;20993;-77
2021/03/04 17:28:21;;;;;;;16.10;7.07;;;6.60;87.30;;;;;;8224517;28;20822;-75
2021/03/04 17:32:26;;;;;;;16.63;8.10;;;6.60;87.60;;;;;;8232317;28;20465;-76
2021/03/04 17:36:33;;;;;;;12.60;6.07;;;6.60;87.60;;;;;;8215788;28;20452;-75
2021/03/04 17:40:35;;;;;;;17.27;7.00;;;6.60;87.60;;;;;;8225099;28;20449;-75
2021/03/04 17:44:39;;;;;;;15.90;7.10;;;6.60;87.60;;;;;;8222419;28;20442;-76
2021/03/04 17:48:46;;;;;;;17.73;8.80;;;6.50;87.40;;;;;;8223064;28;20819;-75
2021/03/04 17:52:50;;;;;;;26.87;11.73;;;6.50;87.50;;;;;;8232140;28;20975;-77
2021/03/04 17:56:56;;;;;;;26.23;11.10;;;6.50;87.50;;;;;;8221656;28;20457;-75
2021/03/04 18:00:57;;;;;;;25.07;10.20;;;6.50;87.70;;;;;;8225745;28;20442;-75
2021/03/04 18:05:06;;;;;;;40.70;13.60;;;6.60;87.80;;;;;;8221214;28;20966;-76
2021/03/04 18:09:14;;;;;;;27.77;10.73;;;6.60;87.90;;;;;;8215944;28;20480;-76
2021/03/04 18:13:16;;;;;;;29.30;11.47;;;6.60;88.10;;;;;;8219395;28;20469;-75
2021/03/04 18:17:18;;;;;;;28.00;11.40;;;6.60;87.90;;;;;;8243124;28;20437;-74
2021/03/04 18:21:19;;;;;;;27.63;13.17;;;6.50;87.80;;;;;;8225684;28;20450;-75
2021/03/04 18:25:21;;;;;;;27.87;13.60;;;6.50;87.50;;;;;;8225639;28;20468;-74
2021/03/04 18:29:31;;;;;;;36.17;15.93;;;6.50;87.30;;;;;;8224487;28;20869;-74
2021/03/04 18:33:33;;;;;;;36.07;16.17;;;6.50;87.40;;;;;;8216482;28;20472;-75
2021/03/04 18:37:43;;;;;;;29.77;13.83;;;6.50;87.70;;;;;;8222896;28;20531;-75
2021/03/04 18:41:45;;;;;;;53.53;19.20;;;6.50;87.90;;;;;;8206012;28;20455;-75
2021/03/04 18:45:52;;;;;;;44.77;20.10;;;6.50;87.90;;;;;;8222474;28;21408;-76
2021/03/04 18:49:54;;;;;;;45.87;20.53;;;6.60;88.10;;;;;;8231218;28;20540;-77
2021/03/04 18:54:10;;;;;;;75.30;25.23;;;6.60;88.30;;;;;;8225785;28;20481;-77
2021/03/04 18:58:16;;;;;;;82.20;29.07;;;6.60;88.30;;;;;;8242028;28;20506;-75
2021/03/04 19:02:20;;;;;;;90.47;29.60;;;6.60;88.30;;;;;;8221587;28;22230;-75
2021/03/04 19:06:26;;;;;;;84.43;31.17;;;6.60;88.30;;;;;;8223025;28;20985;-76
2021/03/04 19:10:32;;;;;;;71.13;25.70;;;6.60;88.30;;;;;;8239415;28;20477;-75
2021/03/04 19:14:34;;;;;;;66.37;28.03;;;6.60;88.40;;;;;;8223047;28;20481;-76
2021/03/04 19:18:44;;;;;;;68.33;26.50;;;6.60;88.00;;;;;;8235903;28;20951;-77
2021/03/04 19:22:46;;;;;;;89.13;30.10;;;6.50;87.90;;;;;;8220244;28;20723;-74
2021/03/04 19:26:47;;;;;;;77.27;29.60;;;6.50;87.90;;;;;;8197909;28;20476;-73
2021/03/04 19:30:53;;;;;;;71.10;28.77;;;6.50;87.90;;;;;;8224720;28;20462;-75
2021/03/04 19:35:02;;;;;;;67.93;25.47;;;6.50;88.00;;;;;;8222954;28;20218;-76
2021/03/04 19:39:06;;;;;;;84.83;32.70;;;6.50;88.20;;;;;;8205440;28;20457;-75
2021/03/04 19:43:07;;;;;;;95.50;32.40;;;6.50;88.00;;;;;;8234167;28;20528;-75
2021/03/04 19:47:16;;;;;;;97.67;34.10;;;6.50;88.20;;;;;;8213355;28;20457;-74
2021/03/04 19:51:19;;;;;;;102.00;35.57;;;6.50;88.20;;;;;;8214944;28;20206;-74
2021/03/04 19:55:19;;;;;;;95.00;35.77;;;6.50;88.30;;;;;;8223081;28;20539;-73
2021/03/04 19:59:22;;;;;;;113.83;36.07;;;6.50;88.40;;;;;;8209220;28;20472;-74
2021/03/04 20:03:30;;;;;;;102.97;34.80;;;6.50;88.70;;;;;;8214261;28;20245;-74
2021/03/04 20:07:33;;;;;;;85.70;33.00;;;6.60;88.60;;;;;;8204548;28;20459;-76
2021/03/04 20:11:35;;;;;;;88.37;32.20;;;6.60;88.60;;;;;;8233350;28;20453;-76
2021/03/04 20:15:38;;;;;;;75.20;29.33;;;6.50;88.20;;;;;;8225677;28;20865;-74
2021/03/04 20:19:46;;;;;;;69.27;27.90;;;6.50;88.20;;;;;;8228943;28;20557;-74
2021/03/04 20:23:50;;;;;;;75.50;27.30;;;6.50;88.20;;;;;;8229506;28;20473;-75
2021/03/04 20:28:11;;;;;;;70.20;27.47;;;6.50;88.40;;;;;;8221772;28;20481;-75
2021/03/04 20:32:14;;;;;;;60.20;23.00;;;6.50;88.40;;;;;;8255060;28;20449;-74
2021/03/04 20:36:17;;;;;;;67.70;27.03;;;6.50;88.60;;;;;;8230530;28;20529;-75
2021/03/04 20:40:18;;;;;;;72.00;27.03;;;6.50;88.80;;;;;;8239724;28;20486;-75
2021/03/04 20:44:19;;;;;;;73.80;27.47;;;6.50;88.80;;;;;;8242083;28;21447;-76
2021/03/04 20:48:22;;;;;;;53.10;23.17;;;6.50;89.00;;;;;;8231947;28;20562;-74
2021/03/04 20:52:27;;;;;;;66.97;25.67;;;6.50;89.10;;;;;;8248820;28;20690;-75